createdAt,value
2023-04-10T00:00:32.690Z,0.90
2023-04-10T00:03:04.327Z,1.00
2023-04-10T00:05:31.618Z,1.00
2023-04-10T00:07:58.580Z,1.00
2023-04-10T00:10:26.673Z,0.90
2023-04-10T00:12:54.157Z,0.90
2023-04-10T00:15:21.240Z,0.90
2023-04-10T00:17:50.665Z,0.90
2023-04-10T00:20:17.760Z,0.90
2023-04-10T00:22:44.615Z,0.80
2023-04-10T00:25:11.548Z,0.90
2023-04-10T00:27:38.438Z,0.80
2023-04-10T00:30:06.109Z,0.80
2023-04-10T00:32:33.033Z,0.80
2023-04-10T00:35:00.005Z,0.80
2023-04-10T00:37:27.550Z,0.70
2023-04-10T00:39:54.438Z,0.70
2023-04-10T00:42:21.326Z,0.70
2023-04-10T00:44:48.190Z,0.70
2023-04-10T00:47:16.293Z,0.60
2023-04-10T00:49:44.772Z,0.50
2023-04-10T00:52:12.314Z,0.50
2023-04-10T00:54:39.832Z,0.50
2023-04-10T00:57:07.139Z,0.50
2023-04-10T00:59:34.451Z,0.50
2023-04-10T01:02:01.508Z,0.50
2023-04-10T01:04:30.982Z,0.50
2023-04-10T01:07:21.878Z,0.50
2023-04-10T01:10:14.574Z,0.50
2023-04-10T01:13:06.258Z,0.50
2023-04-10T01:15:47.814Z,0.40
2023-04-10T01:18:34.888Z,0.40
2023-04-10T01:21:05.745Z,0.30
2023-04-10T01:23:39.912Z,0.40
2023-04-10T01:26:17.362Z,0.40
2023-04-10T01:29:00.667Z,0.30
2023-04-10T01:31:37.081Z,0.30
2023-04-10T01:34:20.610Z,0.20
2023-04-10T01:36:56.612Z,0.20
2023-04-10T01:39:26.440Z,0.10
2023-04-10T01:41:56.663Z,0.00
2023-04-10T01:44:27.758Z,0.10
2023-04-10T01:46:56.311Z,-0.10
2023-04-10T01:49:26.697Z,0.00
2023-04-10T01:51:58.445Z,-0.20
2023-04-10T01:54:27.974Z,-0.20
2023-04-10T01:56:57.058Z,-0.20
2023-04-10T01:59:24.017Z,-0.10
2023-04-10T02:01:57.340Z,-0.20
2023-04-10T02:04:26.623Z,-0.20
2023-04-10T02:07:06.409Z,-0.10
2023-04-10T02:09:59.625Z,-0.10
2023-04-10T02:12:50.659Z,-0.20
2023-04-10T02:15:21.017Z,-0.20
2023-04-10T02:17:48.904Z,-0.20
2023-04-10T02:20:18.683Z,-0.20
2023-04-10T02:22:46.605Z,-0.10
2023-04-10T02:25:14.079Z,-0.20
2023-04-10T02:27:41.110Z,-0.20
2023-04-10T02:30:08.884Z,-0.30
2023-04-10T02:32:37.104Z,-0.30
2023-04-10T02:35:04.538Z,-0.30
2023-04-10T02:37:32.922Z,-0.30
2023-04-10T02:39:59.997Z,-0.30
2023-04-10T02:42:27.273Z,-0.40
2023-04-10T02:44:54.162Z,-0.40
2023-04-10T02:47:21.321Z,-0.40
2023-04-10T02:49:48.736Z,-0.40
2023-04-10T02:52:16.593Z,-0.40
2023-04-10T02:54:43.554Z,-0.40
2023-04-10T02:57:10.957Z,-0.40
2023-04-10T02:59:38.028Z,-0.50
2023-04-10T03:02:05.078Z,-0.50
2023-04-10T03:04:35.250Z,-0.50
2023-04-10T03:07:02.305Z,-0.50
2023-04-10T03:09:29.192Z,-0.60
2023-04-10T03:11:56.214Z,-0.60
2023-04-10T03:14:23.303Z,-0.60
2023-04-10T03:16:50.558Z,-0.60
2023-04-10T03:19:17.643Z,-0.60
2023-04-10T03:21:45.935Z,-0.50
2023-04-10T03:24:12.993Z,-0.60
2023-04-10T03:26:43.432Z,-0.60
2023-04-10T03:29:10.605Z,-0.40
2023-04-10T03:31:37.660Z,-0.50
2023-04-10T03:34:04.727Z,-0.30
2023-04-10T03:36:31.639Z,-0.40
2023-04-10T03:38:58.503Z,-0.50
2023-04-10T03:41:25.844Z,-0.60
2023-04-10T03:43:53.100Z,-0.60
2023-04-10T03:46:20.420Z,-0.60
2023-04-10T03:48:47.396Z,-0.60
2023-04-10T03:51:14.371Z,-0.60
2023-04-10T03:53:41.624Z,-0.60
2023-04-10T03:56:08.912Z,-0.50
2023-04-10T03:58:35.917Z,-0.60
2023-04-10T04:01:02.998Z,-0.60
2023-04-10T04:03:30.112Z,-0.70
2023-04-10T04:05:57.275Z,-0.70
2023-04-10T04:08:24.150Z,-0.70
2023-04-10T04:10:51.103Z,-0.70
2023-04-10T04:13:18.049Z,-0.70
2023-04-10T04:15:44.983Z,-0.70
2023-04-10T04:18:11.899Z,-0.70
2023-04-10T04:20:38.942Z,-0.70
2023-04-10T04:23:06.608Z,-0.70
2023-04-10T04:25:33.488Z,-0.70
2023-04-10T04:28:01.231Z,-0.60
2023-04-10T04:30:28.094Z,-0.70
2023-04-10T04:32:55.024Z,-0.70
2023-04-10T04:35:22.322Z,-0.70
2023-04-10T04:37:49.176Z,-0.80
2023-04-10T04:40:16.444Z,-0.70
2023-04-10T04:42:43.353Z,-0.80
2023-04-10T04:45:10.682Z,-0.70
2023-04-10T04:47:37.622Z,-0.60
2023-04-10T04:50:05.004Z,-0.60
2023-04-10T04:52:32.249Z,-0.60
2023-04-10T04:54:59.234Z,-0.60
2023-04-10T04:57:26.207Z,-0.60
2023-04-10T04:59:53.289Z,-0.60
2023-04-10T05:02:22.916Z,-0.60
2023-04-10T05:04:50.030Z,-0.60
2023-04-10T05:07:17.013Z,-0.50
2023-04-10T05:09:43.910Z,-0.50
2023-04-10T05:12:10.811Z,-0.40
2023-04-10T05:14:37.730Z,-0.40
2023-04-10T05:17:04.628Z,-0.30
2023-04-10T05:19:31.462Z,-0.30
2023-04-10T05:21:58.371Z,-0.20
2023-04-10T05:24:25.414Z,-0.20
2023-04-10T05:26:52.276Z,-0.20
2023-04-10T05:29:19.137Z,-0.20
2023-04-10T05:31:47.099Z,-0.10
2023-04-10T05:34:14.040Z,-0.10
2023-04-10T05:36:41.002Z,-0.10
2023-04-10T05:39:07.904Z,0.00
2023-04-10T05:41:34.843Z,0.10
2023-04-10T05:44:01.911Z,0.10
2023-04-10T05:46:28.806Z,0.20
2023-04-10T05:48:55.944Z,0.20
2023-04-10T05:51:23.049Z,0.20
2023-04-10T05:53:51.216Z,0.30
2023-04-10T05:56:18.302Z,0.30
2023-04-10T05:58:45.306Z,0.40
2023-04-10T06:01:13.588Z,0.40
2023-04-10T06:03:40.711Z,0.50
2023-04-10T06:06:08.385Z,0.60
2023-04-10T06:08:35.360Z,0.70
2023-04-10T06:11:02.410Z,0.80
2023-04-10T06:13:29.459Z,0.90
2023-04-10T06:15:56.438Z,0.90
2023-04-10T06:18:23.316Z,1.00
2023-04-10T06:20:50.406Z,1.10
2023-04-10T06:23:17.371Z,1.10
2023-04-10T06:25:44.560Z,1.20
2023-04-10T06:28:12.175Z,1.30
2023-04-10T06:30:39.299Z,1.30
2023-04-10T06:33:06.280Z,1.40
2023-04-10T06:35:33.235Z,1.50
2023-04-10T06:38:00.458Z,1.70
2023-04-10T06:40:29.505Z,1.80
2023-04-10T06:42:56.892Z,1.90
2023-04-10T06:45:23.838Z,2.20
2023-04-10T06:47:51.099Z,2.30
2023-04-10T06:50:18.446Z,2.40
2023-04-10T06:52:46.319Z,2.50
2023-04-10T06:55:13.273Z,2.60
2023-04-10T06:57:40.821Z,2.70
2023-04-10T07:00:09.581Z,2.80
2023-04-10T07:02:36.510Z,2.90
2023-04-10T07:05:03.473Z,2.90
2023-04-10T07:07:31.533Z,3.00
2023-04-10T07:09:58.682Z,3.10
2023-04-10T07:12:25.669Z,3.20
2023-04-10T07:14:52.570Z,3.30
2023-04-10T07:17:19.472Z,3.30
2023-04-10T07:19:46.365Z,3.40
2023-04-10T07:22:13.330Z,3.40
2023-04-10T07:24:40.370Z,3.50
2023-04-10T07:27:07.389Z,3.60
2023-04-10T07:29:34.479Z,3.60
2023-04-10T07:32:01.487Z,3.70
2023-04-10T07:34:28.618Z,3.80
2023-04-10T07:36:55.643Z,3.90
2023-04-10T07:39:22.553Z,4.00
2023-04-10T07:41:49.528Z,4.10
2023-04-10T07:44:17.680Z,4.10
2023-04-10T07:46:44.591Z,4.20
2023-04-10T07:49:12.297Z,4.30
2023-04-10T07:51:39.187Z,4.30
2023-04-10T07:54:06.234Z,4.50
2023-04-10T07:56:33.113Z,4.50
2023-04-10T07:59:03.517Z,4.50
2023-04-10T08:01:30.439Z,4.60
2023-04-10T08:03:57.972Z,4.70
2023-04-10T08:06:25.086Z,4.70
2023-04-10T08:08:55.179Z,4.90
2023-04-10T08:11:31.309Z,4.90
2023-04-10T08:14:02.312Z,5.00
2023-04-10T08:16:31.365Z,5.00
2023-04-10T08:18:59.489Z,5.10
2023-04-10T08:21:27.425Z,5.20
2023-04-10T08:23:55.863Z,5.30
2023-04-10T08:26:23.410Z,5.30
2023-04-10T08:28:52.523Z,5.30
2023-04-10T08:31:21.355Z,5.40
2023-04-10T08:33:48.821Z,5.40
2023-04-10T08:36:19.033Z,5.40
2023-04-10T08:38:47.755Z,5.50
2023-04-10T08:41:16.805Z,5.50
2023-04-10T08:43:45.786Z,5.50
2023-04-10T08:46:14.457Z,5.60
2023-04-10T08:48:53.725Z,5.70
2023-04-10T08:51:26.253Z,5.70
2023-04-10T08:54:02.621Z,5.80
2023-04-10T08:56:32.856Z,5.80
2023-04-10T08:59:01.556Z,5.80
2023-04-10T09:01:28.597Z,5.90
2023-04-10T09:03:56.226Z,5.90
2023-04-10T09:06:23.410Z,5.90
2023-04-10T09:08:50.399Z,6.00
2023-04-10T09:11:17.297Z,6.00
2023-04-10T09:13:45.151Z,6.00
2023-04-10T09:16:13.896Z,6.10
2023-04-10T09:18:49.172Z,6.20
2023-04-10T09:21:19.041Z,6.20
2023-04-10T09:23:47.358Z,6.20
2023-04-10T09:26:31.849Z,6.20
2023-04-10T09:29:07.324Z,6.30
2023-04-10T09:31:36.067Z,6.40
2023-04-10T09:34:10.894Z,6.40
2023-04-10T09:36:38.306Z,6.40
2023-04-10T09:39:06.167Z,6.30
2023-04-10T09:41:33.395Z,6.40
2023-04-10T09:44:11.962Z,6.50
2023-04-10T09:46:38.981Z,6.40
2023-04-10T09:49:07.481Z,6.50
2023-04-10T09:51:36.013Z,6.50
2023-04-10T09:54:03.960Z,6.50
2023-04-10T09:56:31.375Z,6.60
2023-04-10T09:59:00.031Z,6.60
2023-04-10T10:01:28.887Z,6.70
2023-04-10T10:03:56.462Z,6.70
2023-04-10T10:06:23.715Z,6.70
2023-04-10T10:08:51.830Z,6.80
2023-04-10T10:11:24.890Z,6.90
2023-04-10T10:13:54.847Z,6.80
2023-04-10T10:16:39.412Z,6.80
2023-04-10T10:19:27.180Z,7.00
2023-04-10T10:21:55.583Z,7.00
2023-04-10T10:24:26.152Z,7.10
2023-04-10T10:26:57.346Z,7.10
2023-04-10T10:29:24.910Z,7.10
2023-04-10T10:31:54.095Z,7.10
2023-04-10T10:34:21.886Z,7.10
2023-04-10T10:36:48.879Z,7.20
2023-04-10T10:39:42.603Z,7.30
2023-04-10T10:42:39.609Z,7.30
2023-04-10T10:45:09.743Z,7.30
2023-04-10T10:47:45.979Z,7.30
2023-04-10T10:50:13.012Z,7.40
2023-04-10T10:52:53.093Z,7.40
2023-04-10T10:55:25.607Z,7.40
2023-04-10T10:57:54.851Z,7.40
2023-04-10T11:00:26.097Z,7.40
2023-04-10T11:03:08.500Z,7.40
2023-04-10T11:05:52.283Z,7.40
2023-04-10T11:08:47.177Z,7.40
2023-04-10T11:11:18.619Z,7.40
2023-04-10T11:13:56.460Z,7.40
2023-04-10T11:16:44.712Z,7.40
2023-04-10T11:19:19.220Z,7.50
2023-04-10T11:22:08.848Z,7.50
2023-04-10T11:24:52.341Z,7.40
2023-04-10T11:27:39.445Z,7.50
2023-04-10T11:30:31.064Z,7.40
2023-04-10T11:33:00.385Z,7.40
2023-04-10T11:35:29.028Z,7.40
2023-04-10T11:38:13.741Z,7.40
2023-04-10T11:41:02.363Z,7.40
2023-04-10T11:43:29.498Z,7.40
2023-04-10T11:46:05.381Z,7.40
2023-04-10T11:48:32.782Z,7.50
2023-04-10T11:51:06.390Z,7.50
2023-04-10T11:53:33.361Z,7.50
2023-04-10T11:56:00.305Z,7.50
2023-04-10T11:58:28.841Z,7.50
2023-04-10T12:01:05.476Z,7.60
2023-04-10T12:03:37.431Z,7.60
2023-04-10T12:06:10.180Z,7.60
2023-04-10T12:08:40.070Z,7.60
2023-04-10T12:11:07.883Z,7.60
2023-04-10T12:13:34.935Z,7.60
2023-04-10T12:16:10.671Z,7.70
2023-04-10T12:18:37.984Z,7.60
2023-04-10T12:21:06.874Z,7.70
2023-04-10T12:23:38.172Z,7.70
2023-04-10T12:26:09.570Z,7.70
2023-04-10T12:28:38.142Z,7.70
2023-04-10T12:31:05.837Z,7.70
2023-04-10T12:33:32.979Z,7.60
2023-04-10T12:36:00.196Z,7.60
2023-04-10T12:38:37.608Z,7.70
2023-04-10T12:41:04.889Z,7.70
2023-04-10T12:43:35.892Z,7.60
2023-04-10T12:46:04.887Z,7.60
2023-04-10T12:48:31.926Z,7.60
2023-04-10T12:51:00.537Z,7.60
2023-04-10T12:53:28.269Z,7.60
2023-04-10T12:56:02.030Z,7.60
2023-04-10T12:58:31.106Z,7.50
2023-04-10T13:01:02.380Z,7.40
2023-04-10T13:03:29.756Z,7.40
2023-04-10T13:05:57.055Z,7.30
2023-04-10T13:08:24.098Z,7.40
2023-04-10T13:10:51.082Z,7.40
2023-04-10T13:13:18.182Z,7.50
2023-04-10T13:15:45.421Z,7.50
2023-04-10T13:18:12.632Z,7.40
2023-04-10T13:20:41.139Z,7.40
2023-04-10T13:23:08.858Z,7.50
2023-04-10T13:25:39.850Z,7.40
2023-04-10T13:28:11.494Z,7.50
2023-04-10T13:30:40.716Z,7.50
2023-04-10T13:33:08.843Z,7.60
2023-04-10T13:35:35.940Z,7.60
2023-04-10T13:38:03.088Z,7.70
2023-04-10T13:40:30.066Z,7.70
2023-04-10T13:42:57.038Z,7.70
2023-04-10T13:45:24.085Z,7.60
2023-04-10T13:47:51.090Z,7.40
2023-04-10T13:50:18.101Z,7.40
2023-04-10T13:52:45.011Z,7.30
2023-04-10T13:55:11.989Z,7.30
2023-04-10T13:57:39.194Z,7.40
2023-04-10T14:00:07.584Z,7.40
2023-04-10T14:02:34.802Z,7.50
2023-04-10T14:05:01.832Z,7.50
2023-04-10T14:07:28.889Z,7.50
2023-04-10T14:09:55.809Z,7.60
2023-04-10T14:12:23.404Z,7.60
2023-04-10T14:14:50.600Z,7.70
2023-04-10T14:17:17.533Z,7.60
2023-04-10T14:19:46.484Z,7.50
2023-04-10T14:22:14.618Z,7.40
2023-04-10T14:24:41.512Z,7.30
2023-04-10T14:27:08.406Z,7.20
2023-04-10T14:29:39.077Z,7.20
2023-04-10T14:32:09.699Z,7.20
2023-04-10T14:34:36.683Z,7.10
2023-04-10T14:37:03.844Z,7.10
2023-04-10T14:39:31.476Z,7.20
2023-04-10T14:41:58.381Z,7.30
2023-04-10T14:44:25.429Z,7.30
2023-04-10T14:46:52.318Z,7.20
2023-04-10T14:49:19.252Z,7.20
2023-04-10T14:51:48.432Z,7.20
2023-04-10T14:54:16.981Z,7.20
2023-04-10T14:56:44.220Z,7.20
2023-04-10T14:59:11.653Z,7.10
2023-04-10T15:01:38.676Z,7.10
2023-04-10T15:04:05.788Z,7.00
2023-04-10T15:06:35.669Z,7.00
2023-04-10T15:09:03.900Z,7.00
2023-04-10T15:11:30.871Z,6.90
2023-04-10T15:13:59.663Z,6.90
2023-04-10T15:16:26.601Z,6.80
2023-04-10T15:18:53.663Z,6.80
2023-04-10T15:21:20.573Z,6.80
2023-04-10T15:23:47.482Z,6.90
2023-04-10T15:26:15.519Z,7.00
2023-04-10T15:28:45.884Z,7.00
2023-04-10T15:31:13.050Z,6.90
2023-04-10T15:33:40.068Z,6.70
2023-04-10T15:36:08.080Z,6.60
2023-04-10T15:38:35.961Z,6.50
2023-04-10T15:41:11.974Z,6.60
2023-04-10T15:43:39.094Z,6.60
2023-04-10T15:46:06.370Z,6.50
2023-04-10T15:48:33.323Z,6.50
2023-04-10T15:51:05.545Z,6.40
2023-04-10T15:53:32.902Z,6.40
2023-04-10T15:55:59.888Z,6.50
2023-04-10T15:58:27.369Z,6.40
2023-04-10T16:00:54.326Z,6.30
2023-04-10T16:03:21.383Z,6.40
2023-04-10T16:05:48.416Z,6.40
2023-04-10T16:08:17.906Z,6.30
2023-04-10T16:10:44.895Z,6.20
2023-04-10T16:13:11.779Z,6.20
2023-04-10T16:15:39.414Z,6.10
2023-04-10T16:18:07.813Z,6.10
2023-04-10T16:20:34.987Z,6.10
2023-04-10T16:23:01.943Z,6.10
2023-04-10T16:25:28.940Z,6.10
2023-04-10T16:27:55.857Z,6.00
2023-04-10T16:30:23.513Z,6.00
2023-04-10T16:32:51.134Z,5.90
2023-04-10T16:35:19.218Z,5.90
2023-04-10T16:37:46.599Z,5.90
2023-04-10T16:40:13.919Z,5.90
2023-04-10T16:42:42.784Z,5.90
2023-04-10T16:45:10.282Z,5.90
2023-04-10T16:47:37.753Z,5.80
2023-04-10T16:50:05.197Z,5.80
2023-04-10T16:52:32.378Z,5.80
2023-04-10T16:54:59.348Z,5.80
2023-04-10T16:57:26.213Z,5.80
2023-04-10T16:59:58.104Z,5.70
2023-04-10T17:02:26.445Z,5.60
2023-04-10T17:04:56.425Z,5.60
2023-04-10T17:07:23.898Z,5.60
2023-04-10T17:09:51.287Z,5.50
2023-04-10T17:12:18.427Z,5.50
2023-04-10T17:14:45.711Z,5.50
2023-04-10T17:17:12.675Z,5.40
2023-04-10T17:19:39.691Z,5.30
2023-04-10T17:22:16.040Z,5.30
2023-04-10T17:24:44.546Z,5.20
2023-04-10T17:27:12.166Z,5.20
2023-04-10T17:29:39.433Z,5.20
2023-04-10T17:32:07.989Z,5.10
2023-04-10T17:34:35.473Z,5.10
2023-04-10T17:37:02.679Z,5.10
2023-04-10T17:39:29.700Z,5.10
2023-04-10T17:41:56.961Z,5.10
2023-04-10T17:44:24.094Z,5.00
2023-04-10T17:46:51.178Z,4.90
2023-04-10T17:49:18.208Z,4.90
2023-04-10T17:51:45.311Z,4.80
2023-04-10T17:54:12.344Z,4.80
2023-04-10T17:56:39.476Z,4.80
2023-04-10T17:59:06.393Z,4.70
2023-04-10T18:01:33.445Z,4.70
2023-04-10T18:04:02.940Z,4.60
2023-04-10T18:06:30.017Z,4.50
2023-04-10T18:08:57.929Z,4.40
2023-04-10T18:11:25.449Z,4.40
2023-04-10T18:13:52.440Z,4.30
2023-04-10T18:16:19.460Z,4.30
2023-04-10T18:18:46.415Z,4.30
2023-04-10T18:21:16.360Z,4.20
2023-04-10T18:23:44.692Z,4.20
2023-04-10T18:26:12.287Z,4.20
2023-04-10T18:28:39.662Z,4.20
2023-04-10T18:31:07.432Z,4.10
2023-04-10T18:33:34.440Z,4.10
2023-04-10T18:36:01.428Z,4.10
2023-04-10T18:38:28.525Z,4.10
2023-04-10T18:40:58.415Z,4.00
2023-04-10T18:43:27.593Z,4.00
2023-04-10T18:45:55.142Z,4.00
2023-04-10T18:48:22.298Z,3.90
2023-04-10T18:50:53.322Z,3.90
2023-04-10T18:53:21.534Z,3.90
2023-04-10T18:55:52.366Z,4.00
2023-04-10T18:58:20.377Z,3.90
2023-04-10T19:00:47.690Z,3.90
2023-04-10T19:03:15.084Z,3.80
2023-04-10T19:05:43.161Z,3.80
2023-04-10T19:08:14.274Z,3.70
2023-04-10T19:10:42.580Z,3.60
2023-04-10T19:13:11.724Z,3.60
2023-04-10T19:15:43.582Z,3.60
2023-04-10T19:18:12.395Z,3.50
2023-04-10T19:20:50.486Z,3.50
2023-04-10T19:23:19.984Z,3.60
2023-04-10T19:25:47.335Z,3.50
2023-04-10T19:28:14.283Z,3.40
2023-04-10T19:30:41.159Z,3.40
2023-04-10T19:33:08.066Z,3.40
2023-04-10T19:35:35.064Z,3.40
2023-04-10T19:38:01.999Z,3.40
2023-04-10T19:40:31.210Z,3.40
2023-04-10T19:43:02.009Z,3.40
2023-04-10T19:45:29.526Z,3.40
2023-04-10T19:47:57.109Z,3.40
2023-04-10T19:50:24.393Z,3.40
2023-04-10T19:52:52.486Z,3.30
2023-04-10T19:55:19.540Z,3.30
2023-04-10T19:57:47.963Z,3.30
2023-04-10T20:00:15.013Z,3.30
2023-04-10T20:02:42.383Z,3.30
2023-04-10T20:05:09.852Z,3.30
2023-04-10T20:07:36.894Z,3.30
2023-04-10T20:10:04.722Z,3.30
2023-04-10T20:12:34.926Z,3.30
2023-04-10T20:15:02.954Z,3.30
2023-04-10T20:17:30.348Z,3.30
2023-04-10T20:19:57.516Z,3.30
2023-04-10T20:22:24.495Z,3.20
2023-04-10T20:24:52.056Z,3.20
2023-04-10T20:27:19.032Z,3.20
2023-04-10T20:29:46.045Z,3.20
2023-04-10T20:32:12.950Z,3.20
2023-04-10T20:34:39.875Z,3.10
2023-04-10T20:37:06.799Z,3.10
2023-04-10T20:39:34.226Z,3.10
2023-04-10T20:42:01.483Z,3.10
2023-04-10T20:44:28.456Z,3.10
2023-04-10T20:46:55.358Z,3.00
2023-04-10T20:49:22.832Z,3.00
2023-04-10T20:51:49.878Z,3.10
2023-04-10T20:54:19.042Z,3.00
2023-04-10T20:56:46.689Z,3.00
2023-04-10T20:59:13.646Z,2.90
2023-04-10T21:01:40.871Z,2.90
2023-04-10T21:04:07.845Z,2.90
2023-04-10T21:06:35.015Z,2.90
2023-04-10T21:09:01.889Z,2.80
2023-04-10T21:11:28.982Z,2.90
2023-04-10T21:13:55.920Z,2.90
2023-04-10T21:16:22.893Z,2.80
2023-04-10T21:18:49.917Z,2.90
2023-04-10T21:21:16.790Z,2.90
2023-04-10T21:23:43.622Z,2.80
2023-04-10T21:26:10.741Z,2.80
2023-04-10T21:28:37.731Z,2.80
2023-04-10T21:31:04.797Z,2.80
2023-04-10T21:33:33.060Z,2.80
2023-04-10T21:36:00.246Z,2.80
2023-04-10T21:38:27.300Z,2.80
2023-04-10T21:40:54.912Z,2.80
2023-04-10T21:43:22.198Z,2.80
2023-04-10T21:45:49.452Z,2.70
2023-04-10T21:48:16.589Z,2.70
2023-04-10T21:50:43.533Z,2.70
2023-04-10T21:53:10.480Z,2.70
2023-04-10T21:55:37.441Z,2.70
2023-04-10T21:58:05.102Z,2.70
2023-04-10T22:00:33.494Z,2.70
2023-04-10T22:03:00.592Z,2.70
2023-04-10T22:05:27.985Z,2.70
2023-04-10T22:07:55.260Z,2.80
2023-04-10T22:10:22.208Z,2.80
2023-04-10T22:12:49.448Z,2.80
2023-04-10T22:15:17.030Z,2.70
2023-04-10T22:17:44.004Z,2.70
2023-04-10T22:20:11.400Z,2.70
2023-04-10T22:22:38.470Z,2.70
2023-04-10T22:25:06.110Z,2.70
2023-04-10T22:27:33.476Z,2.70
2023-04-10T22:30:03.647Z,2.70
2023-04-10T22:32:32.083Z,2.70
2023-04-10T22:35:00.054Z,2.70
2023-04-10T22:37:27.677Z,2.70
2023-04-10T22:39:57.498Z,2.70
2023-04-10T22:42:24.538Z,2.70
2023-04-10T22:44:51.614Z,2.70
2023-04-10T22:47:18.554Z,2.70
2023-04-10T22:49:45.766Z,2.70
2023-04-10T22:52:13.453Z,2.70
2023-04-10T22:54:40.354Z,2.70
2023-04-10T22:57:07.727Z,2.70
2023-04-10T22:59:38.162Z,2.70
2023-04-10T23:02:05.300Z,2.60
2023-04-10T23:04:32.481Z,2.60
2023-04-10T23:06:59.736Z,2.60
2023-04-10T23:09:26.712Z,2.60
2023-04-10T23:11:53.614Z,2.60
2023-04-10T23:14:20.800Z,2.60
2023-04-10T23:16:47.885Z,2.60
2023-04-10T23:19:14.838Z,2.50
2023-04-10T23:21:41.774Z,2.50
2023-04-10T23:24:08.650Z,2.60
2023-04-10T23:26:35.649Z,2.50
2023-04-10T23:29:02.592Z,2.50
2023-04-10T23:31:29.503Z,2.50
2023-04-10T23:33:56.392Z,2.50
2023-04-10T23:36:23.312Z,2.50
2023-04-10T23:38:50.244Z,2.50
2023-04-10T23:41:17.128Z,2.50
2023-04-10T23:43:44.745Z,2.50
2023-04-10T23:46:11.670Z,2.50
2023-04-10T23:48:38.831Z,2.50
2023-04-10T23:51:08.656Z,2.50
2023-04-10T23:53:35.593Z,2.50
2023-04-10T23:56:02.553Z,2.50
2023-04-10T23:58:29.516Z,2.50
